Lake McDonald, MT (59921)

8:26 AM MDT on September 19, 2014 (GMT -0600)
Blankenship | Change Station
CLOSE
Current Station
Personal Weather Station
Location: Columbia Falls, MT
Elevation: 3218 ft
Nearby Weather Stations

Elev 3218 ft 48.47 °N, 114.11 °W | Updated 1 minute ago

Mostly Cloudy
Mostly Cloudy
53.7 °F
Feels Like 53.7 °F
N
0.0
Wind Variable Wind from West
Gusts 0.0 mph

Today
High -- | Low -- °F
--% Chance of Precip.
Yesterday
High -- | Low -- °F
Precip. -- in
7:17 AM 7:39 PM
Waning Crescent, 19% visible
Pressure 29.78 in
Visibility 10.0 miles
Clouds Clear
Dew Point 52 °F
Humidity 92%
Rainfall 0.00 in
Snow Depth 0 in , 1 in , 0 in
UV 0 out of 12
Pollen 2.20 out of 12
Air Quality Not available.
Flu Activity Not available.
METAR KCTB 191356Z AUTO 28009KT 10SM CLR 14/07 A2983 RMK AO2 SLP084 T01390067

More Conditions Fewer Conditions

Pressure 29.78 in
Visibility 10.0 miles
Clouds Clear
Dew Point 52 °F
Humidity 92%
Rainfall 0.00 in
Snow Depth 0 in , 1 in , 0 in
UV 0 out of 12
Pollen 2.20 out of 12
Air Quality Not available.
Flu Activity Not available.
METAR KCTB 191356Z AUTO 28009KT 10SM CLR 14/07 A2983 RMK AO2 SLP084 T01390067

More Conditions Fewer Conditions

10-Day Weather Forecast

Almanac

Astronomy

Sep. 19, 2014 Rise Set
Actual Time 7:17 AM MDT 7:39 PM MDT
Civil Twilight 6:46 AM MDT 8:10 PM MDT
Nautical Twilight 6:09 AM MDT 8:48 PM MDT
Astronomical Twilight 5:30 AM MDT 9:26 PM MDT
Moon 2:50 AM MDT 5:24 PM MDT
Length of Visible Light 13h 24m
Length of Day
12h 21m
Tomorrow will be 3m 31s shorter.
Waning Crescent, 19% of the Moon is Illuminated
Today
Waning Crescent
Sep 24
New
Oct 1
First Quarter
Oct 8
Full
Oct 15
Last Quarter

Today's Extremes

State Highs State Lows

Community

WunderPhotos

Upload Photos

1,754,624 photos uploaded!

WunderBlogs® & News

Nearby

Snow Depth

Station Depth Elevation
Placer Basin 0 in 8830 ft
Badger Pass 1 in 6900 ft
Tizer Basin 0 in 6840 ft
Lick Creek 0 in 6860 ft
Lemhi Ridge 0 in 8100 ft

Earthquake Activity

City Distance Mag. Time & Date
No recent earthquake activity has been reported nearby.
Minimum magnitude displayed is 2.5.

Coastal Water Temperatures

Place Temperature
No Stations Reporting

Nearby Weather Stations